Tolona, Missouri
Current Conditions -  °F | °C
As of 2:15 AM on Friday 24 Oct 2014 (Local Time) from KHAE Reporting Station
Scattered Clouds Scattered Clouds  
Wind Chill: 12°   Ceiling: Unl
Heat Index: 12°   Visibility: 10mi
Dew Point: 11°   Wind: 3mph
Humidity: 94%   Direction: 230°SW
Pressure: 30.08"   Gusts: NA
Location:  40.0949°N, 91.8336°W
Report Text: KHAE 240715Z AUTO 23003KT 10SM SCT016 SCT022 SCT029 12/11 A3008 RMK AO2
Loading
Personal Weather Stations






























Interactive Weather Map
Tropical Storm Tracking
New forecast layout! Learn more

10-Day Weather Forecast

Advertisements
Track Severe Weather on mobile